Time;durP1;ratioP1;P1;durP2;ratioP2;P2;SDS_P1;SDS_P2;PMS_P1;PMS_P2;Temp;Humidity;BMP_temperature;BMP_pressure;BME280_temperature;BME280_humidity;BME280_pressure;Samples;Min_cycle;Max_cycle;Signal;HPM_P1;HPM_P2
2023/02/24 00:01:36;;;;;;;22.80;17.40;;;15.70;65.00;;;;;;5031662;28;20446;-49
2023/02/24 00:04:07;;;;;;;23.63;17.17;;;15.70;65.10;;;;;;5031207;28;20451;-50
2023/02/24 00:06:35;;;;;;;19.50;15.10;;;15.80;65.20;;;;;;5031470;28;20428;-48
2023/02/24 00:09:16;;;;;;;16.80;15.10;;;15.80;65.10;;;;;;5031534;28;20434;-48
2023/02/24 00:11:51;;;;;;;17.40;13.93;;;15.80;65.10;;;;;;5031332;28;20464;-48
2023/02/24 00:14:17;;;;;;;17.50;14.57;;;15.70;65.10;;;;;;5029588;28;20873;-48
2023/02/24 00:16:44;;;;;;;17.13;15.10;;;15.70;65.40;;;;;;5031409;28;21025;-48
2023/02/24 00:19:12;;;;;;;18.40;15.43;;;15.70;65.40;;;;;;5031449;28;20938;-49
2023/02/24 00:21:39;;;;;;;17.33;15.23;;;15.70;65.30;;;;;;5031466;28;20420;-48
2023/02/24 00:24:05;;;;;;;17.13;14.90;;;15.70;65.20;;;;;;5030766;28;20428;-48
2023/02/24 00:26:31;;;;;;;20.33;14.60;;;15.70;65.30;;;;;;5031375;28;20486;-48
2023/02/24 00:28:59;;;;;;;21.77;14.87;;;15.70;65.30;;;;;;5031019;28;20428;-51
2023/02/24 00:31:29;;;;;;;18.03;15.67;;;15.70;65.40;;;;;;5030615;28;20475;-48
2023/02/24 00:33:56;;;;;;;18.33;15.43;;;15.70;65.40;;;;;;5042082;28;20813;-49
2023/02/24 00:36:22;;;;;;;18.03;15.47;;;15.70;65.40;;;;;;5031255;28;20896;-50
2023/02/24 00:38:56;;;;;;;20.10;15.83;;;15.70;65.30;;;;;;5031066;28;20814;-49
2023/02/24 00:41:28;;;;;;;19.23;16.23;;;15.70;65.10;;;;;;5029790;28;20783;-48
2023/02/24 00:43:55;;;;;;;17.73;15.77;;;15.80;65.10;;;;;;5030605;28;20435;-48
2023/02/24 00:46:24;;;;;;;17.13;14.73;;;15.70;64.80;;;;;;5030918;28;20432;-48
2023/02/24 00:48:54;;;;;;;17.97;16.07;;;15.70;64.90;;;;;;5030936;28;20919;-48
2023/02/24 00:51:22;;;;;;;16.77;15.03;;;15.70;65.10;;;;;;5030788;28;20432;-48
2023/02/24 00:53:58;;;;;;;18.60;16.00;;;15.70;65.30;;;;;;5030519;28;20493;-48
2023/02/24 00:56:29;;;;;;;18.07;15.80;;;15.70;65.30;;;;;;5030857;28;20574;-48
2023/02/24 00:58:56;;;;;;;21.40;15.00;;;15.70;65.40;;;;;;5031231;28;20486;-50
2023/02/24 01:01:24;;;;;;;19.43;16.30;;;15.70;65.30;;;;;;5030684;28;20589;-48
2023/02/24 01:03:55;;;;;;;20.50;17.43;;;15.70;65.30;;;;;;5030497;28;20444;-49
2023/02/24 01:06:23;;;;;;;22.10;15.80;;;15.70;65.30;;;;;;5030643;28;20436;-48
2023/02/24 01:08:50;;;;;;;18.67;16.83;;;15.70;65.50;;;;;;5029061;28;20834;-48
2023/02/24 01:14:08;;;;;;;19.50;15.77;;;15.70;65.30;;;;;;5030218;28;20918;-48
2023/02/24 01:16:34;;;;;;;18.40;16.37;;;15.70;65.20;;;;;;5030325;28;20483;-48
2023/02/24 01:19:01;;;;;;;17.70;15.80;;;15.70;65.10;;;;;;5030357;28;20451;-49
2023/02/24 01:21:27;;;;;;;20.67;16.20;;;15.70;65.30;;;;;;5030211;28;20424;-48
2023/02/24 01:23:53;;;;;;;20.33;15.90;;;15.70;65.30;;;;;;5030055;28;20455;-48
2023/02/24 01:26:19;;;;;;;25.23;17.20;;;15.70;65.10;;;;;;5030247;28;20435;-48
2023/02/24 01:28:45;;;;;;;18.80;15.57;;;15.70;65.10;;;;;;5030353;28;20633;-48
2023/02/24 01:31:12;;;;;;;21.63;16.80;;;15.60;65.40;;;;;;5030078;28;20491;-48
2023/02/24 01:33:38;;;;;;;18.07;16.00;;;15.60;65.40;;;;;;5040120;28;20431;-48
2023/02/24 01:36:21;;;;;;;21.93;17.00;;;15.60;65.40;;;;;;5029680;28;21248;-48
2023/02/24 01:38:50;;;;;;;19.30;16.00;;;15.50;65.70;;;;;;5030133;28;20471;-49
2023/02/24 01:41:20;;;;;;;21.37;17.07;;;15.50;65.80;;;;;;5030155;28;20500;-48
2023/02/24 01:44:02;;;;;;;21.20;17.10;;;15.50;65.80;;;;;;5031916;28;20803;-49
2023/02/24 01:46:29;;;;;;;24.60;17.00;;;15.60;65.70;;;;;;5034094;28;20447;-49
2023/02/24 01:49:02;;;;;;;22.50;16.37;;;15.50;65.00;;;;;;5034167;28;20431;-51
2023/02/24 01:51:31;;;;;;;22.50;16.27;;;15.50;65.50;;;;;;5033895;28;20447;-48
2023/02/24 01:53:58;;;;;;;22.47;17.40;;;15.50;65.50;;;;;;5033816;28;20436;-48
2023/02/24 01:56:24;;;;;;;20.57;17.30;;;15.50;65.60;;;;;;5034144;28;20483;-48
2023/02/24 01:58:50;;;;;;;22.27;17.40;;;15.50;65.70;;;;;;5033955;28;20578;-49
2023/02/24 02:01:18;;;;;;;21.90;17.27;;;15.40;65.90;;;;;;5032383;28;20199;-48
2023/02/24 02:03:44;;;;;;;25.40;17.63;;;15.40;65.80;;;;;;5033521;28;20428;-48
2023/02/24 02:06:12;;;;;;;22.17;19.17;;;15.50;65.70;;;;;;5033836;28;20474;-49
2023/02/24 02:08:42;;;;;;;22.67;17.50;;;15.40;65.60;;;;;;5033879;28;20193;-49
2023/02/24 02:11:10;;;;;;;21.23;17.90;;;15.40;65.50;;;;;;5033671;28;20455;-48
2023/02/24 02:13:41;;;;;;;21.03;17.73;;;15.30;65.70;;;;;;5033452;28;20767;-48
2023/02/24 02:16:25;;;;;;;23.07;18.57;;;15.30;66.10;;;;;;5033551;28;20554;-48
2023/02/24 02:19:12;;;;;;;23.87;17.47;;;15.20;65.90;;;;;;5033605;28;20982;-48
2023/02/24 02:21:43;;;;;;;25.07;17.93;;;15.20;66.30;;;;;;5033643;28;20436;-48
2023/02/24 02:24:26;;;;;;;18.47;16.47;;;15.20;66.40;;;;;;5033326;28;20511;-48
2023/02/24 02:26:57;;;;;;;22.93;17.30;;;15.20;66.30;;;;;;5033632;28;20811;-48
2023/02/24 02:29:31;;;;;;;25.03;17.77;;;15.30;66.20;;;;;;5032093;28;20481;-48
2023/02/24 02:32:41;;;;;;;21.73;17.80;;;15.30;66.30;;;;;;5033394;28;20517;-48
2023/02/24 02:35:12;;;;;;;21.00;17.00;;;15.30;66.20;;;;;;5041434;28;20455;-48
2023/02/24 02:37:47;;;;;;;21.03;17.13;;;15.20;66.40;;;;;;5033167;28;20479;-49
2023/02/24 02:40:23;;;;;;;23.13;17.33;;;15.20;66.20;;;;;;5033141;28;20444;-48
2023/02/24 02:43:02;;;;;;;20.17;16.57;;;15.30;66.40;;;;;;5032913;28;20494;-48
2023/02/24 02:45:34;;;;;;;20.33;17.60;;;15.30;66.20;;;;;;5033000;28;20439;-48
2023/02/24 02:48:11;;;;;;;19.93;17.73;;;15.30;65.90;;;;;;5032951;28;20439;-49
2023/02/24 02:50:44;;;;;;;21.83;18.07;;;15.40;65.80;;;;;;5032890;28;20760;-48
2023/02/24 02:53:17;;;;;;;20.60;15.73;;;15.40;65.60;;;;;;5032778;28;20490;-49
2023/02/24 02:55:52;;;;;;;23.43;17.00;;;15.40;65.50;;;;;;5031100;28;20515;-48
2023/02/24 02:58:22;;;;;;;21.13;16.83;;;15.40;65.70;;;;;;5032754;28;20431;-48
2023/02/24 03:01:03;;;;;;;20.93;17.27;;;15.40;65.70;;;;;;5033286;28;20428;-48
2023/02/24 03:03:36;;;;;;;17.93;16.10;;;15.40;65.50;;;;;;5032293;28;20427;-48
2023/02/24 03:06:06;;;;;;;18.90;16.30;;;15.40;65.50;;;;;;5032897;28;20538;-49
2023/02/24 03:08:36;;;;;;;24.50;17.47;;;15.40;65.40;;;;;;5032592;28;20428;-49
2023/02/24 03:11:06;;;;;;;19.93;15.20;;;15.40;65.30;;;;;;5032550;28;20838;-49
2023/02/24 03:13:36;;;;;;;21.87;17.33;;;15.40;65.20;;;;;;5032223;28;20440;-48
2023/02/24 03:16:03;;;;;;;21.97;16.47;;;15.40;65.00;;;;;;5032415;28;20517;-49
2023/02/24 03:18:34;;;;;;;23.87;17.50;;;15.40;64.90;;;;;;5032848;28;20428;-49
2023/02/24 03:21:08;;;;;;;23.03;17.10;;;15.40;64.80;;;;;;5032441;28;20458;-49
2023/02/24 03:23:47;;;;;;;19.43;16.00;;;15.40;64.70;;;;;;5031054;28;20419;-48
2023/02/24 03:26:33;;;;;;;24.37;17.20;;;15.40;64.60;;;;;;5032331;28;20455;-48
2023/02/24 03:29:47;;;;;;;20.53;16.60;;;15.30;64.50;;;;;;5031386;28;21129;-49
2023/02/24 03:32:42;;;;;;;26.00;18.70;;;15.30;64.60;;;;;;5031273;28;20499;-48
2023/02/24 03:35:29;;;;;;;22.43;17.67;;;15.30;64.80;;;;;;5024481;28;20447;-48
2023/02/24 03:37:58;;;;;;;21.90;17.40;;;15.30;64.90;;;;;;5020698;28;20513;-50
2023/02/24 03:40:28;;;;;;;23.13;16.87;;;15.30;64.90;;;;;;5032288;28;20447;-51
2023/02/24 03:43:04;;;;;;;22.13;18.00;;;15.30;64.90;;;;;;5031802;28;20519;-49
2023/02/24 03:45:34;;;;;;;21.23;17.03;;;15.30;65.10;;;;;;5031845;28;20526;-48
2023/02/24 03:48:01;;;;;;;23.43;17.80;;;15.20;65.10;;;;;;5031961;28;20522;-49
2023/02/24 03:50:30;;;;;;;23.03;18.60;;;15.20;65.20;;;;;;5030640;28;20811;-48
2023/02/24 03:53:17;;;;;;;26.10;18.43;;;15.20;65.10;;;;;;5030161;28;20431;-48
2023/02/24 03:55:57;;;;;;;24.87;17.40;;;15.30;65.00;;;;;;5031805;28;20978;-48
2023/02/24 03:58:23;;;;;;;24.67;19.50;;;15.30;64.90;;;;;;5032003;28;20471;-49
2023/02/24 04:01:04;;;;;;;25.23;19.50;;;15.20;65.10;;;;;;5031476;28;20440;-50
2023/02/24 04:03:41;;;;;;;25.07;17.83;;;15.20;65.10;;;;;;5031146;28;20196;-48
2023/02/24 04:06:19;;;;;;;29.23;19.93;;;15.20;65.20;;;;;;5030798;28;20786;-49
2023/02/24 04:09:10;;;;;;;21.30;18.20;;;15.20;65.10;;;;;;5031535;28;21251;-50
2023/02/24 04:11:46;;;;;;;23.13;19.00;;;15.20;65.40;;;;;;5031749;28;20436;-48
2023/02/24 04:14:23;;;;;;;25.60;19.17;;;15.20;65.50;;;;;;5031132;28;20431;-52
2023/02/24 04:17:12;;;;;;;22.83;17.00;;;15.10;65.50;;;;;;5029723;28;20964;-53
2023/02/24 04:19:41;;;;;;;24.67;18.97;;;15.10;65.50;;;;;;5031298;28;20804;-52
2023/02/24 04:22:09;;;;;;;28.40;19.17;;;15.10;65.50;;;;;;5031070;28;20436;-52
2023/02/24 04:24:38;;;;;;;26.37;19.20;;;15.10;65.60;;;;;;5031256;28;20432;-53
2023/02/24 04:27:10;;;;;;;25.60;19.87;;;15.10;65.70;;;;;;5031243;28;20766;-52
2023/02/24 04:29:45;;;;;;;24.77;19.40;;;15.00;65.70;;;;;;5031043;28;20435;-52
2023/02/24 04:32:13;;;;;;;37.53;30.53;;;15.00;65.80;;;;;;5030483;28;20467;-52
2023/02/24 04:34:40;;;;;;;30.77;22.60;;;15.00;65.80;;;;;;5042798;28;20432;-53
2023/02/24 04:37:05;;;;;;;27.27;20.57;;;15.00;65.80;;;;;;5030978;28;20476;-53
2023/02/24 04:39:31;;;;;;;28.97;19.10;;;15.00;66.00;;;;;;5031146;28;20435;-53
2023/02/24 04:42:00;;;;;;;30.60;19.70;;;14.90;66.30;;;;;;5030070;28;20199;-52
2023/02/24 04:44:27;;;;;;;25.07;19.43;;;15.00;66.40;;;;;;5030200;28;20198;-53
2023/02/24 04:46:52;;;;;;;26.17;20.10;;;15.00;66.30;;;;;;5030810;28;20424;-54
2023/02/24 04:49:19;;;;;;;28.10;19.87;;;15.00;66.20;;;;;;5031039;28;20424;-53
2023/02/24 04:51:45;;;;;;;25.90;20.30;;;15.00;66.10;;;;;;5030860;28;20228;-52
2023/02/24 04:54:16;;;;;;;24.60;19.30;;;15.00;65.90;;;;;;5030543;28;20865;-52
2023/02/24 04:56:43;;;;;;;25.10;19.87;;;15.00;65.90;;;;;;5030605;28;20875;-53
2023/02/24 04:59:09;;;;;;;32.57;19.10;;;15.00;65.80;;;;;;5030853;28;20435;-51
2023/02/24 05:01:39;;;;;;;24.13;19.50;;;15.00;65.70;;;;;;5030588;28;20428;-52
2023/02/24 05:04:06;;;;;;;29.03;19.57;;;15.00;65.60;;;;;;5030248;28;20467;-51
2023/02/24 05:06:32;;;;;;;27.03;19.67;;;14.90;65.90;;;;;;5030405;28;20478;-50
2023/02/24 05:09:00;;;;;;;26.10;19.83;;;14.90;66.00;;;;;;5029790;28;20522;-53
2023/02/24 05:11:26;;;;;;;28.00;20.60;;;15.00;65.80;;;;;;5030072;28;20432;-49
2023/02/24 05:13:52;;;;;;;32.10;20.67;;;15.00;65.60;;;;;;5030225;28;20432;-53
2023/02/24 05:16:19;;;;;;;24.90;18.67;;;15.00;65.40;;;;;;5030046;28;21072;-49
2023/02/24 05:18:44;;;;;;;27.30;18.90;;;15.00;65.60;;;;;;5030098;28;20584;-50
2023/02/24 05:23:58;;;;;;;29.47;19.40;;;15.00;65.50;;;;;;5030229;28;20212;-49
2023/02/24 05:26:24;;;;;;;29.47;20.47;;;15.00;65.30;;;;;;5030290;28;20464;-49
2023/02/24 05:28:52;;;;;;;24.90;19.03;;;15.00;65.30;;;;;;5030524;28;20434;-52
2023/02/24 05:31:25;;;;;;;25.97;20.73;;;15.00;65.30;;;;;;5030207;28;20910;-51
2023/02/24 05:33:53;;;;;;;28.40;19.53;;;15.00;65.30;;;;;;5041755;28;20440;-50
2023/02/24 05:36:20;;;;;;;30.80;20.57;;;15.00;65.40;;;;;;5028613;28;20825;-52
2023/02/24 05:38:47;;;;;;;28.53;21.03;;;15.00;65.20;;;;;;5030164;28;20467;-50
2023/02/24 05:41:16;;;;;;;26.67;20.63;;;15.00;65.20;;;;;;5030318;28;20424;-52
2023/02/24 05:43:53;;;;;;;29.20;22.03;;;15.00;65.20;;;;;;5029639;28;20436;-52
2023/02/24 05:46:28;;;;;;;30.90;21.73;;;15.00;65.10;;;;;;5030065;28;20428;-52
2023/02/24 05:48:59;;;;;;;27.37;20.97;;;15.00;65.10;;;;;;5030128;28;20435;-52
2023/02/24 05:51:34;;;;;;;28.17;20.20;;;15.00;65.00;;;;;;5030414;28;20927;-53
2023/02/24 05:54:08;;;;;;;27.63;20.93;;;15.00;65.30;;;;;;5029748;28;20420;-53
2023/02/24 05:56:35;;;;;;;27.63;20.17;;;15.00;65.00;;;;;;5029934;28;20989;-51
2023/02/24 05:59:03;;;;;;;33.50;22.33;;;15.00;65.00;;;;;;5030065;28;20821;-53
2023/02/24 06:01:34;;;;;;;29.80;23.33;;;15.00;64.90;;;;;;5029835;28;20550;-50
2023/02/24 06:04:05;;;;;;;37.60;24.47;;;15.00;65.00;;;;;;5028095;28;20660;-48
2023/02/24 06:06:36;;;;;;;35.83;24.20;;;15.00;65.00;;;;;;5029887;28;20431;-48
2023/02/24 06:09:12;;;;;;;35.63;24.60;;;14.90;64.90;;;;;;5030024;28;20912;-52
2023/02/24 06:11:40;;;;;;;33.33;24.60;;;14.80;65.30;;;;;;5029850;28;21007;-53
2023/02/24 06:14:07;;;;;;;34.80;24.20;;;14.90;65.10;;;;;;5029701;28;20490;-48
2023/02/24 06:16:34;;;;;;;35.07;25.23;;;14.90;64.90;;;;;;5029739;28;20583;-52
2023/02/24 06:19:00;;;;;;;37.60;25.20;;;14.90;64.90;;;;;;5029777;28;20434;-52
2023/02/24 06:21:28;;;;;;;35.63;25.20;;;14.90;64.70;;;;;;5029637;28;20416;-53
2023/02/24 06:23:56;;;;;;;33.73;24.13;;;14.90;64.70;;;;;;5029385;28;20204;-49
2023/02/24 06:26:22;;;;;;;33.40;23.60;;;14.90;64.50;;;;;;5029921;28;20925;-50
2023/02/24 06:28:51;;;;;;;32.87;23.77;;;14.90;64.50;;;;;;5030401;28;21002;-49
2023/02/24 06:31:16;;;;;;;36.73;26.63;;;14.90;64.40;;;;;;5031709;28;20533;-50
2023/02/24 06:33:42;;;;;;;32.10;25.40;;;14.90;64.40;;;;;;5043956;28;20446;-51
2023/02/24 06:36:07;;;;;;;38.03;24.50;;;14.90;64.60;;;;;;5033396;28;20287;-51
2023/02/24 06:38:35;;;;;;;35.63;25.30;;;14.80;64.70;;;;;;5033249;28;20276;-52
2023/02/24 06:41:03;;;;;;;36.00;26.07;;;14.80;64.80;;;;;;5033175;28;20189;-53
2023/02/24 06:43:31;;;;;;;40.57;25.63;;;14.80;64.80;;;;;;5032685;28;20440;-49
2023/02/24 06:45:58;;;;;;;36.93;24.80;;;14.80;64.80;;;;;;5033281;28;20982;-48
2023/02/24 06:48:23;;;;;;;42.70;27.67;;;14.80;65.00;;;;;;5033377;28;20456;-51
2023/02/24 06:50:50;;;;;;;40.50;26.30;;;14.80;64.80;;;;;;5033126;28;20471;-51
2023/02/24 06:53:17;;;;;;;34.63;24.80;;;14.80;64.90;;;;;;5032685;28;20272;-50
2023/02/24 06:55:47;;;;;;;39.73;26.87;;;14.70;64.80;;;;;;5033385;28;20476;-53
2023/02/24 06:58:18;;;;;;;39.17;25.70;;;14.70;65.60;;;;;;5031222;28;20436;-48
2023/02/24 07:00:55;;;;;;;40.33;26.47;;;14.70;65.00;;;;;;5032742;28;20428;-49
2023/02/24 07:03:23;;;;;;;38.37;26.07;;;14.80;64.80;;;;;;5032459;28;20498;-48
2023/02/24 07:06:09;;;;;;;40.50;26.07;;;14.80;64.70;;;;;;5032641;28;20827;-48
2023/02/24 07:08:36;;;;;;;36.80;26.20;;;14.80;64.50;;;;;;5032749;28;20423;-49
2023/02/24 07:11:05;;;;;;;37.07;24.80;;;14.80;64.50;;;;;;5032660;28;20461;-49
2023/02/24 07:13:31;;;;;;;35.77;24.90;;;14.90;64.70;;;;;;5032345;28;20515;-48
2023/02/24 07:16:05;;;;;;;38.40;26.37;;;14.90;64.70;;;;;;5032354;28;20826;-49
2023/02/24 07:18:35;;;;;;;37.50;26.37;;;14.80;64.70;;;;;;5032503;28;20956;-48
2023/02/24 07:21:10;;;;;;;41.60;28.00;;;14.80;64.70;;;;;;5032315;28;20938;-51
2023/02/24 07:23:38;;;;;;;41.73;27.80;;;14.90;64.80;;;;;;5031150;28;20431;-52
2023/02/24 07:26:17;;;;;;;47.17;33.67;;;14.80;64.80;;;;;;5031868;28;20774;-49
2023/02/24 07:28:45;;;;;;;40.97;29.43;;;14.80;64.80;;;;;;5032126;28;20522;-51
2023/02/24 07:31:15;;;;;;;43.70;28.57;;;14.80;64.80;;;;;;5032281;28;20548;-48
2023/02/24 07:33:44;;;;;;;43.63;28.37;;;14.80;64.80;;;;;;5043474;28;20431;-49
2023/02/24 07:36:13;;;;;;;44.07;28.90;;;14.80;65.40;;;;;;5032045;28;20998;-48
2023/02/24 07:38:40;;;;;;;47.77;30.20;;;14.90;64.60;;;;;;5031880;28;20435;-48
2023/02/24 07:41:09;;;;;;;47.90;30.27;;;14.90;64.60;;;;;;5031925;28;20439;-51
2023/02/24 07:43:36;;;;;;;43.57;29.30;;;14.80;64.50;;;;;;5031548;28;20447;-50
2023/02/24 07:46:10;;;;;;;47.53;28.20;;;14.80;64.50;;;;;;5032038;28;20436;-49
2023/02/24 07:48:37;;;;;;;41.23;27.87;;;14.80;64.60;;;;;;5032141;28;20430;-49
2023/02/24 07:51:15;;;;;;;44.40;27.00;;;14.80;64.60;;;;;;5030330;28;20424;-52
2023/02/24 07:53:41;;;;;;;46.43;28.57;;;14.80;64.50;;;;;;5031427;28;20432;-50
2023/02/24 07:56:13;;;;;;;48.47;30.80;;;14.80;64.50;;;;;;5031879;28;20479;-49
2023/02/24 07:58:43;;;;;;;48.83;30.30;;;14.80;64.30;;;;;;5031588;28;20434;-51
2023/02/24 08:01:21;;;;;;;48.50;29.10;;;14.80;64.40;;;;;;5031766;28;20434;-51
2023/02/24 08:03:48;;;;;;;45.07;29.10;;;14.70;64.10;;;;;;5031139;28;20464;-49
2023/02/24 08:06:14;;;;;;;47.40;28.93;;;14.60;64.80;;;;;;5031421;28;20431;-48
2023/02/24 08:08:59;;;;;;;49.80;29.30;;;14.70;64.10;;;;;;5031547;28;20459;-49
2023/02/24 08:11:41;;;;;;;46.03;28.37;;;14.70;63.90;;;;;;5031435;28;20263;-50
2023/02/24 08:14:12;;;;;;;44.93;28.07;;;14.70;63.80;;;;;;5031389;28;20801;-52
2023/02/24 08:16:58;;;;;;;49.50;28.70;;;14.70;63.70;;;;;;5031230;28;20494;-51
2023/02/24 08:19:28;;;;;;;60.93;29.07;;;14.80;63.50;;;;;;5029872;28;20451;-52
2023/02/24 08:21:55;;;;;;;44.77;27.57;;;14.80;63.60;;;;;;5031071;28;20946;-51
2023/02/24 08:24:23;;;;;;;42.90;26.63;;;14.80;63.50;;;;;;5031417;28;20497;-49
2023/02/24 08:27:06;;;;;;;44.13;27.00;;;14.80;63.40;;;;;;5031336;28;20908;-49
2023/02/24 08:29:39;;;;;;;49.00;28.67;;;14.90;63.50;;;;;;5031215;28;20521;-48
2023/02/24 08:32:08;;;;;;;44.07;27.87;;;14.80;63.50;;;;;;5031201;28;20568;-49
2023/02/24 08:34:34;;;;;;;44.07;27.67;;;14.90;63.60;;;;;;5042795;28;20923;-49
2023/02/24 08:37:00;;;;;;;43.80;26.77;;;14.90;63.30;;;;;;5030932;28;20506;-48
2023/02/24 08:39:29;;;;;;;47.50;29.40;;;14.90;63.20;;;;;;5031158;28;20517;-52
2023/02/24 08:41:56;;;;;;;47.10;27.57;;;14.90;63.20;;;;;;5030555;28;20433;-52
2023/02/24 08:44:22;;;;;;;43.03;26.27;;;14.80;63.40;;;;;;5030012;28;20562;-49
2023/02/24 08:46:48;;;;;;;49.80;28.47;;;14.90;63.30;;;;;;5030469;28;20511;-48
2023/02/24 08:49:16;;;;;;;45.60;27.90;;;14.90;63.30;;;;;;5030738;28;20571;-52
2023/02/24 08:51:46;;;;;;;50.53;27.30;;;14.90;63.40;;;;;;5030240;28;20573;-50
2023/02/24 08:54:15;;;;;;;48.63;28.40;;;14.90;63.20;;;;;;5030761;28;20438;-50
2023/02/24 08:56:47;;;;;;;61.53;27.73;;;14.90;63.30;;;;;;5030728;28;20490;-52
2023/02/24 08:59:27;;;;;;;46.83;26.80;;;14.90;63.40;;;;;;5029554;28;20440;-49
2023/02/24 09:04:47;;;;;;;54.10;28.40;;;14.90;64.50;;;;;;5030877;28;20431;-51
2023/02/24 09:07:35;;;;;;;53.20;29.70;;;14.80;63.90;;;;;;5030652;28;20935;-49
2023/02/24 09:10:02;;;;;;;49.50;28.33;;;14.70;64.40;;;;;;5030525;28;20432;-49
2023/02/24 09:12:29;;;;;;;46.80;26.50;;;14.80;64.40;;;;;;5028617;28;20428;-48
2023/02/24 09:15:06;;;;;;;45.47;27.17;;;14.90;64.00;;;;;;5030298;28;20936;-49
2023/02/24 09:22:56;;;;;;;41.33;26.17;;;15.10;63.80;;;;;;5030237;28;20474;-49
2023/02/24 09:25:24;;;;;;;44.30;25.27;;;15.10;63.50;;;;;;5030442;28;20484;-50
2023/02/24 09:27:54;;;;;;;47.23;26.97;;;15.10;63.20;;;;;;5030561;28;20797;-49
2023/02/24 09:30:36;;;;;;;51.97;28.20;;;15.20;63.20;;;;;;5030179;28;20771;-48
2023/02/24 09:33:16;;;;;;;50.57;28.60;;;15.20;63.20;;;;;;5036223;28;20434;-49
2023/02/24 09:35:52;;;;;;;53.93;29.37;;;15.20;63.20;;;;;;5033612;28;20432;-49
2023/02/24 09:39:08;;;;;;;49.37;27.20;;;15.20;63.90;;;;;;5028837;28;20436;-51
2023/02/24 09:41:30;;;;;;;50.90;28.23;;;15.30;63.20;;;;;;5029969;28;20957;-48
2023/02/24 09:44:02;;;;;;;49.17;30.80;;;15.20;62.90;;;;;;5030127;28;20436;-50
2023/02/24 09:46:34;;;;;;;49.10;26.80;;;15.20;62.70;;;;;;5030195;28;20777;-49
2023/02/24 09:49:11;;;;;;;43.03;26.50;;;15.20;62.40;;;;;;5030074;28;20435;-48
2023/02/24 09:51:43;;;;;;;44.50;25.03;;;15.20;62.10;;;;;;5029749;28;20431;-49
2023/02/24 09:54:15;;;;;;;41.80;25.80;;;15.20;62.00;;;;;;5029037;28;20549;-49
2023/02/24 09:56:59;;;;;;;40.93;25.77;;;15.20;62.10;;;;;;5030100;28;20623;-50
2023/02/24 09:59:33;;;;;;;47.13;26.07;;;15.30;62.40;;;;;;5030036;28;20432;-53
2023/02/24 10:02:27;;;;;;;44.63;27.00;;;15.20;62.90;;;;;;5029391;28;20863;-49
2023/02/24 10:05:13;;;;;;;43.40;25.10;;;15.20;63.20;;;;;;5032200;28;20436;-49
2023/02/24 10:07:42;;;;;;;44.27;26.23;;;15.30;63.10;;;;;;5033792;28;20430;-48
2023/02/24 10:10:26;;;;;;;38.93;23.70;;;15.40;63.00;;;;;;5033773;28;20447;-53
2023/02/24 10:13:13;;;;;;;46.73;26.07;;;15.50;62.90;;;;;;5033541;28;20444;-52
2023/02/24 10:18:25;;;;;;;41.27;25.57;;;15.60;62.00;;;;;;5033721;28;20807;-49
2023/02/24 10:20:55;;;;;;;42.10;25.50;;;15.60;62.30;;;;;;5033703;28;20424;-49
2023/02/24 10:23:37;;;;;;;41.33;23.73;;;15.60;62.00;;;;;;5033631;28;20416;-49
2023/02/24 10:26:29;;;;;;;35.10;21.30;;;15.60;61.70;;;;;;5033727;28;20471;-51
2023/02/24 10:29:29;;;;;;;38.13;21.37;;;15.60;60.90;;;;;;5033653;28;20436;-49
2023/02/24 10:32:22;;;;;;;34.90;20.27;;;15.60;60.80;;;;;;5031557;28;20503;-52
2023/02/24 10:34:52;;;;;;;34.53;20.97;;;15.70;60.80;;;;;;5022499;28;20455;-49
2023/02/24 10:37:22;;;;;;;33.73;21.60;;;15.70;60.70;;;;;;5033020;28;20670;-49
2023/02/24 10:39:49;;;;;;;33.37;20.70;;;15.60;60.10;;;;;;5033217;28;20447;-49
2023/02/24 10:42:30;;;;;;;34.67;21.83;;;15.70;60.10;;;;;;5032904;28;20535;-49
2023/02/24 10:45:11;;;;;;;38.07;19.47;;;15.60;60.70;;;;;;5033073;28;20945;-49
2023/02/24 10:47:43;;;;;;;38.60;22.17;;;15.70;60.50;;;;;;5033253;28;20776;-51
2023/02/24 10:50:30;;;;;;;32.93;20.20;;;15.70;60.40;;;;;;5032789;28;20791;-48
2023/02/24 10:58:36;;;;;;;32.47;17.67;;;15.80;60.30;;;;;;5033098;28;20442;-49
2023/02/24 11:01:19;;;;;;;31.70;17.10;;;15.90;59.50;;;;;;5031288;28;20439;-49
2023/02/24 11:04:21;;;;;;;29.03;16.10;;;15.60;59.10;;;;;;5032835;28;20439;-49
2023/02/24 11:06:56;;;;;;;29.40;17.47;;;15.50;59.70;;;;;;5031762;28;20443;-48
2023/02/24 11:09:31;;;;;;;34.03;19.93;;;15.30;59.60;;;;;;5032991;28;20432;-49
2023/02/24 11:17:49;;;;;;;33.67;19.90;;;15.20;59.50;;;;;;5032640;28;20537;-49
2023/02/24 11:20:18;;;;;;;36.27;20.00;;;15.20;59.70;;;;;;5032438;28;20443;-49
2023/02/24 11:22:47;;;;;;;42.63;20.23;;;15.40;59.40;;;;;;5032288;28;20992;-49
2023/02/24 11:25:14;;;;;;;43.30;20.90;;;15.40;59.10;;;;;;5032406;28;20915;-50
2023/02/24 11:27:42;;;;;;;38.00;20.37;;;15.50;59.50;;;;;;5030837;28;20432;-48
2023/02/24 11:30:29;;;;;;;40.77;20.43;;;15.60;59.00;;;;;;5032241;28;20428;-49
2023/02/24 11:33:28;;;;;;;34.93;21.20;;;15.70;58.90;;;;;;5036110;28;20834;-49
2023/02/24 11:36:19;;;;;;;34.90;20.20;;;15.70;58.70;;;;;;5033505;28;20460;-49
2023/02/24 11:39:00;;;;;;;41.20;22.50;;;15.70;58.90;;;;;;5032219;28;21043;-49
2023/02/24 11:41:43;;;;;;;42.13;24.10;;;15.60;58.70;;;;;;5031685;28;20994;-53
2023/02/24 11:44:51;;;;;;;39.80;21.93;;;15.60;58.60;;;;;;5032162;28;20439;-48
2023/02/24 11:47:26;;;;;;;38.80;20.90;;;15.60;58.70;;;;;;5031660;28;20451;-49
2023/02/24 11:50:19;;;;;;;42.73;23.07;;;15.60;58.60;;;;;;5032421;28;20800;-50
2023/02/24 11:52:47;;;;;;;40.53;22.53;;;15.60;58.70;;;;;;5029715;28;20440;-52
2023/02/24 11:55:31;;;;;;;39.33;21.93;;;15.60;58.60;;;;;;5031061;28;20812;-50
2023/02/24 11:57:59;;;;;;;42.13;23.40;;;15.60;58.70;;;;;;5031888;28;20503;-49
2023/02/24 12:00:29;;;;;;;40.40;22.30;;;15.50;58.90;;;;;;5032026;28;20428;-49
2023/02/24 12:03:11;;;;;;;37.90;22.03;;;15.50;58.80;;;;;;5031374;28;20900;-52
2023/02/24 12:05:42;;;;;;;38.17;21.60;;;15.30;59.00;;;;;;5032035;28;20428;-49
2023/02/24 12:08:24;;;;;;;44.67;21.20;;;15.40;59.00;;;;;;5031625;28;20911;-49
2023/02/24 12:10:57;;;;;;;38.53;22.40;;;15.30;59.00;;;;;;5031498;28;20934;-48
2023/02/24 12:13:57;;;;;;;37.07;19.90;;;15.40;58.70;;;;;;5031011;28;20515;-49
2023/02/24 12:16:32;;;;;;;36.93;20.47;;;15.50;58.60;;;;;;5031141;28;20493;-48
2023/02/24 12:19:05;;;;;;;41.57;21.63;;;15.60;58.30;;;;;;5031573;28;20438;-49
2023/02/24 12:21:38;;;;;;;42.67;22.77;;;15.70;58.10;;;;;;5029523;28;20436;-49
2023/02/24 12:24:05;;;;;;;42.83;21.50;;;15.80;58.00;;;;;;5031172;28;20483;-49
2023/02/24 12:26:41;;;;;;;40.60;21.67;;;15.80;57.80;;;;;;5030410;28;20485;-49
2023/02/24 12:29:28;;;;;;;44.33;22.47;;;16.00;57.80;;;;;;5031182;28;20439;-50
2023/02/24 12:31:59;;;;;;;42.00;20.43;;;16.00;57.70;;;;;;5031043;28;20482;-50
2023/02/24 12:34:45;;;;;;;44.27;21.60;;;16.00;57.50;;;;;;5042982;28;20439;-49
2023/02/24 12:37:16;;;;;;;43.03;20.87;;;16.00;57.40;;;;;;5030850;28;20550;-49
2023/02/24 12:39:44;;;;;;;38.47;21.23;;;15.90;57.70;;;;;;5031192;28;20539;-48
2023/02/24 12:42:17;;;;;;;39.07;22.43;;;15.80;57.90;;;;;;5030781;28;20436;-49
2023/02/24 12:45:07;;;;;;;42.03;22.70;;;15.90;58.20;;;;;;5031145;28;20526;-50
2023/02/24 12:47:56;;;;;;;42.63;21.40;;;16.10;57.90;;;;;;5029435;28;20451;-49
2023/02/24 12:50:58;;;;;;;35.33;18.53;;;16.20;57.60;;;;;;5030999;28;20651;-49
2023/02/24 12:53:37;;;;;;;37.80;21.20;;;16.30;57.80;;;;;;5030440;28;20448;-49
2023/02/24 12:56:18;;;;;;;44.47;21.80;;;16.40;57.40;;;;;;5030792;28;20483;-49
2023/02/24 12:58:50;;;;;;;39.90;21.77;;;16.30;57.50;;;;;;5030671;28;20926;-49
2023/02/24 13:01:47;;;;;;;41.80;21.57;;;16.30;57.20;;;;;;5030401;28;20420;-49
2023/02/24 13:04:28;;;;;;;40.73;21.33;;;16.50;56.70;;;;;;5030538;28;20513;-49
2023/02/24 13:07:38;;;;;;;42.63;23.53;;;16.70;56.50;;;;;;5018152;28;20467;-49
2023/02/24 13:10:34;;;;;;;38.20;21.67;;;16.70;56.00;;;;;;5030621;28;20440;-49
2023/02/24 13:13:17;;;;;;;36.13;21.20;;;16.80;55.90;;;;;;5030257;28;20432;-48
2023/02/24 13:15:58;;;;;;;36.93;19.63;;;16.80;55.60;;;;;;5028944;28;20456;-49
2023/02/24 13:18:33;;;;;;;36.83;21.67;;;16.80;55.70;;;;;;5030484;28;20432;-49
2023/02/24 13:21:06;;;;;;;39.50;20.17;;;16.60;55.60;;;;;;5029907;28;20454;-49
2023/02/24 13:23:32;;;;;;;44.40;20.30;;;16.60;55.80;;;;;;5030362;28;20502;-49
2023/02/24 13:25:58;;;;;;;38.53;18.53;;;16.60;55.60;;;;;;5030194;28;20436;-49
2023/02/24 13:28:25;;;;;;;36.43;18.90;;;16.60;55.50;;;;;;5030713;28;20434;-49